Archival Weather

Kayes/Dag-Dag

Kayes/Dag-Dag, Mali (GAKD)

Report from: Thursday, September 21, 2023 11:00 AM UTC
Current time: Tuesday, June 18, 2024 11:37 AM UTC

Current weather – Weather history – Daily summaries
Weather forecast

Temperature28.0°C (82.4°F)
Heat index31.4°C (88.5°F)
Dew point23.0°C (73.4°F)
Winds 4 kts (2.1 m/s, 4.6 mph) West (280°)
Visibility6.2 mi. (10 km)
Clouds Scattered clouds 2,000 ft. (610 m)
Altimeter29.94 in.Hg (1014 mB)
Relative humidity74 %
Density altitude1,848 ft. (563 m)
Flight conditions Visual Meteorological Conditions
Raw dataGAKD 211100Z 28004KT 9999 SCT020 28/23 Q1014
An error has occurred. This application may no longer respond until reloaded. Reload 🗙